createdAt,value
2022-12-02T00:00:29.352Z,64.81
2022-12-02T00:01:53.621Z,65.03
2022-12-02T00:03:19.158Z,65.07
2022-12-02T00:04:42.442Z,65.25
2022-12-02T00:06:14.953Z,65.13
2022-12-02T00:07:38.664Z,65.16
2022-12-02T00:09:12.811Z,65.12
2022-12-02T00:10:37.789Z,65.16
2022-12-02T00:11:59.443Z,65.33
2022-12-02T00:13:25.402Z,65.28
2022-12-02T00:14:46.631Z,65.20
2022-12-02T00:16:17.961Z,65.58
2022-12-02T00:17:39.110Z,65.29
2022-12-02T00:19:03.937Z,65.11
2022-12-02T00:20:33.825Z,65.51
2022-12-02T00:21:56.328Z,65.53
2022-12-02T00:23:19.625Z,65.55
2022-12-02T00:24:41.786Z,65.54
2022-12-02T00:26:08.904Z,65.62
2022-12-02T00:27:30.957Z,65.27
2022-12-02T00:29:05.549Z,65.53
2022-12-02T00:30:31.317Z,65.32
2022-12-02T00:31:53.251Z,65.33
2022-12-02T00:33:15.852Z,65.30
2022-12-02T00:34:38.494Z,65.10
2022-12-02T00:36:02.728Z,64.94
2022-12-02T00:37:24.957Z,64.75
2022-12-02T00:38:48.103Z,64.80
2022-12-02T00:40:11.503Z,64.63
2022-12-02T00:41:41.149Z,64.75
2022-12-02T00:43:21.122Z,64.66
2022-12-02T00:45:02.131Z,64.44
2022-12-02T00:46:35.630Z,64.68
2022-12-02T00:47:58.270Z,64.71
2022-12-02T00:49:20.584Z,64.67
2022-12-02T00:50:41.622Z,64.49
2022-12-02T00:52:05.716Z,64.64
2022-12-02T00:53:29.511Z,64.52
2022-12-02T00:55:10.429Z,64.33
2022-12-02T00:56:32.115Z,64.72
2022-12-02T00:57:54.201Z,64.72
2022-12-02T00:59:18.695Z,64.63
2022-12-02T01:00:42.384Z,64.50
2022-12-02T01:02:04.819Z,64.83
2022-12-02T01:03:26.235Z,64.95
2022-12-02T01:04:48.818Z,64.94
2022-12-02T01:06:12.667Z,65.00
2022-12-02T01:07:34.976Z,64.97
2022-12-02T01:08:56.110Z,65.27
2022-12-02T01:10:18.665Z,65.14
2022-12-02T01:11:42.556Z,65.05
2022-12-02T01:13:05.223Z,65.41
2022-12-02T01:14:27.455Z,65.37
2022-12-02T01:15:49.750Z,65.29
2022-12-02T01:17:12.179Z,65.31
2022-12-02T01:18:33.316Z,65.13
2022-12-02T01:19:57.839Z,65.39
2022-12-02T01:21:19.849Z,65.62
2022-12-02T01:22:42.164Z,65.62
2022-12-02T01:24:06.775Z,65.85
2022-12-02T01:25:28.451Z,65.66
2022-12-02T01:26:50.754Z,65.89
2022-12-02T01:28:11.896Z,65.85
2022-12-02T01:29:36.137Z,66.30
2022-12-02T01:30:58.490Z,66.09
2022-12-02T01:32:21.130Z,66.15
2022-12-02T01:33:45.380Z,66.22
2022-12-02T01:35:09.574Z,66.56
2022-12-02T01:36:34.161Z,66.44
2022-12-02T01:37:55.201Z,66.29
2022-12-02T01:39:17.077Z,66.55
2022-12-02T01:40:37.983Z,66.39
2022-12-02T01:42:00.792Z,66.41
2022-12-02T01:43:21.790Z,66.31
2022-12-02T01:44:45.676Z,66.34
2022-12-02T01:46:11.595Z,66.53
2022-12-02T01:47:33.819Z,66.38
2022-12-02T01:48:55.950Z,66.63
2022-12-02T01:50:18.337Z,66.51
2022-12-02T01:51:41.664Z,66.63
2022-12-02T01:53:02.790Z,66.54
2022-12-02T01:54:28.353Z,66.70
2022-12-02T01:55:51.299Z,66.56
2022-12-02T01:57:17.974Z,66.70
2022-12-02T01:58:40.562Z,66.73
2022-12-02T02:00:02.060Z,66.72
2022-12-02T02:01:38.191Z,66.60
2022-12-02T02:03:02.107Z,66.30
2022-12-02T02:04:24.771Z,66.56
2022-12-02T02:05:46.545Z,66.90
2022-12-02T02:07:10.111Z,66.86
2022-12-02T02:08:34.241Z,66.80
2022-12-02T02:10:01.876Z,66.58
2022-12-02T02:11:27.934Z,66.52
2022-12-02T02:12:54.210Z,66.54
2022-12-02T02:14:16.058Z,66.67
2022-12-02T02:15:40.292Z,66.65
2022-12-02T02:17:03.094Z,66.40
2022-12-02T02:18:26.344Z,66.72
2022-12-02T02:19:47.637Z,66.56
2022-12-02T02:21:12.400Z,66.51
2022-12-02T02:22:44.353Z,66.60
2022-12-02T02:24:07.658Z,66.54
2022-12-02T02:25:34.826Z,66.49
2022-12-02T02:26:55.894Z,66.64
2022-12-02T02:28:19.933Z,66.63
2022-12-02T02:29:42.341Z,66.47
2022-12-02T02:31:07.567Z,66.55
2022-12-02T02:32:34.202Z,66.38
2022-12-02T02:33:56.345Z,66.68
2022-12-02T02:35:18.772Z,66.87
2022-12-02T02:36:41.175Z,66.67
2022-12-02T02:38:02.180Z,66.63
2022-12-02T02:39:25.957Z,66.56
2022-12-02T02:40:49.126Z,66.56
2022-12-02T02:42:11.935Z,66.87
2022-12-02T02:43:32.983Z,66.72
2022-12-02T02:44:55.878Z,66.46
2022-12-02T02:46:18.073Z,66.62
2022-12-02T02:47:40.593Z,66.50
2022-12-02T02:49:05.065Z,66.71
2022-12-02T02:50:29.687Z,66.38
2022-12-02T02:51:52.601Z,66.30
2022-12-02T02:53:16.241Z,66.29
2022-12-02T02:54:40.172Z,66.32
2022-12-02T02:56:04.226Z,66.47
2022-12-02T02:57:28.583Z,66.40
2022-12-02T02:58:50.894Z,66.53
2022-12-02T03:00:19.257Z,66.51
2022-12-02T03:01:44.087Z,66.53
2022-12-02T03:03:06.068Z,66.68
2022-12-02T03:04:29.137Z,66.63
2022-12-02T03:05:54.287Z,66.17
2022-12-02T03:07:17.232Z,66.10
2022-12-02T03:08:41.390Z,65.98
2022-12-02T03:10:07.083Z,66.38
2022-12-02T03:11:29.751Z,66.06
2022-12-02T03:12:54.169Z,66.07
2022-12-02T03:14:20.696Z,66.62
2022-12-02T03:15:45.308Z,66.49
2022-12-02T03:17:12.177Z,66.52
2022-12-02T03:18:33.872Z,66.62
2022-12-02T03:19:58.211Z,66.63
2022-12-02T03:21:20.291Z,66.67
2022-12-02T03:22:42.263Z,66.63
2022-12-02T03:24:05.423Z,66.57
2022-12-02T03:25:29.689Z,66.72
2022-12-02T03:26:54.307Z,66.42
2022-12-02T03:28:15.739Z,66.60
2022-12-02T03:29:40.105Z,66.52
2022-12-02T03:31:03.838Z,66.46
2022-12-02T03:32:29.185Z,66.68
2022-12-02T03:33:51.352Z,66.55
2022-12-02T03:35:14.266Z,66.64
2022-12-02T03:36:39.424Z,66.83
2022-12-02T03:38:07.466Z,66.70
2022-12-02T03:39:28.401Z,66.67
2022-12-02T03:40:52.250Z,66.39
2022-12-02T03:42:13.425Z,66.63
2022-12-02T03:43:35.911Z,66.60
2022-12-02T03:44:57.303Z,66.57
2022-12-02T03:46:19.372Z,66.71
2022-12-02T03:47:41.150Z,66.53
2022-12-02T03:49:05.996Z,66.74
2022-12-02T03:50:29.535Z,66.63
2022-12-02T03:51:51.551Z,66.75
2022-12-02T03:53:14.232Z,66.75
2022-12-02T03:54:35.289Z,67.03
2022-12-02T03:55:59.268Z,66.90
2022-12-02T03:57:21.218Z,66.99
2022-12-02T03:58:49.180Z,67.02
2022-12-02T04:00:16.647Z,66.84
2022-12-02T04:01:37.874Z,66.91
2022-12-02T04:03:00.180Z,67.06
2022-12-02T04:04:21.407Z,67.19
2022-12-02T04:05:49.299Z,67.00
2022-12-02T04:07:12.064Z,67.69
2022-12-02T04:08:33.139Z,67.59
2022-12-02T04:09:59.282Z,67.42
2022-12-02T04:11:22.955Z,67.56
2022-12-02T04:12:45.040Z,67.66
2022-12-02T04:14:07.299Z,67.69
2022-12-02T04:15:28.385Z,67.41
2022-12-02T04:16:50.258Z,67.37
2022-12-02T04:18:14.713Z,67.26
2022-12-02T04:19:35.693Z,67.17
2022-12-02T04:20:57.902Z,67.41
2022-12-02T04:22:18.449Z,67.34
2022-12-02T04:23:40.851Z,66.95
2022-12-02T04:25:04.274Z,66.95
2022-12-02T04:26:30.430Z,67.11
2022-12-02T04:27:51.899Z,67.12
2022-12-02T04:29:14.032Z,67.17
2022-12-02T04:30:34.890Z,67.14
2022-12-02T04:31:56.899Z,67.34
2022-12-02T04:33:18.224Z,67.00
2022-12-02T04:34:40.558Z,67.15
2022-12-02T04:36:01.557Z,67.27
2022-12-02T04:37:23.345Z,67.30
2022-12-02T04:38:44.633Z,67.13
2022-12-02T04:40:08.383Z,67.36
2022-12-02T04:41:31.754Z,67.34
2022-12-02T04:42:53.675Z,67.15
2022-12-02T04:44:18.129Z,66.98
2022-12-02T04:45:40.793Z,67.29
2022-12-02T04:47:01.991Z,67.30
2022-12-02T04:48:24.386Z,67.05
2022-12-02T04:49:46.732Z,67.13
2022-12-02T04:51:07.825Z,67.27
2022-12-02T04:52:29.635Z,67.06
2022-12-02T04:53:51.905Z,66.93
2022-12-02T04:55:14.379Z,67.08
2022-12-02T04:56:37.645Z,67.18
2022-12-02T04:57:58.535Z,66.94
2022-12-02T04:59:20.539Z,66.99
2022-12-02T05:00:43.223Z,67.22
2022-12-02T05:02:04.216Z,67.34
2022-12-02T05:03:26.365Z,67.47
2022-12-02T05:04:47.501Z,67.32
2022-12-02T05:06:09.703Z,67.37
2022-12-02T05:07:31.706Z,67.69
2022-12-02T05:08:52.725Z,67.59
2022-12-02T05:10:14.771Z,67.57
2022-12-02T05:11:38.418Z,67.52
2022-12-02T05:13:00.333Z,67.44
2022-12-02T05:14:22.473Z,67.64
2022-12-02T05:15:44.655Z,67.37
2022-12-02T05:17:05.848Z,67.57
2022-12-02T05:18:27.905Z,67.54
2022-12-02T05:19:48.937Z,67.69
2022-12-02T05:21:10.811Z,67.60
2022-12-02T05:22:35.808Z,67.42
2022-12-02T05:23:57.954Z,67.58
2022-12-02T05:25:19.131Z,67.40
2022-12-02T05:26:42.698Z,67.58
2022-12-02T05:28:05.106Z,67.52
2022-12-02T05:29:25.929Z,67.47
2022-12-02T05:30:48.229Z,67.54
2022-12-02T05:32:10.419Z,67.41
2022-12-02T05:33:32.932Z,67.52
2022-12-02T05:34:54.942Z,67.46
2022-12-02T05:36:17.098Z,67.53
2022-12-02T05:37:39.842Z,67.62
2022-12-02T05:39:02.063Z,67.37
2022-12-02T05:40:25.240Z,67.26
2022-12-02T05:41:50.335Z,67.25
2022-12-02T05:43:17.958Z,67.37
2022-12-02T05:44:40.746Z,67.05
2022-12-02T05:46:01.686Z,66.92
2022-12-02T05:47:24.791Z,67.12
2022-12-02T05:48:48.278Z,67.26
2022-12-02T05:50:13.984Z,67.35
2022-12-02T05:51:34.927Z,67.22
2022-12-02T05:52:56.996Z,67.20
2022-12-02T05:54:20.642Z,66.85
2022-12-02T05:55:42.838Z,67.04
2022-12-02T05:57:08.826Z,67.12
2022-12-02T05:58:32.553Z,67.05
2022-12-02T05:59:59.004Z,67.36
2022-12-02T06:01:24.283Z,67.11
2022-12-02T06:02:47.944Z,67.21
2022-12-02T06:04:18.645Z,66.97
2022-12-02T06:05:43.198Z,67.02
2022-12-02T06:07:12.866Z,67.08
2022-12-02T06:08:39.959Z,67.16
2022-12-02T06:10:01.056Z,67.02
2022-12-02T06:11:30.052Z,67.15
2022-12-02T06:12:55.861Z,67.08
2022-12-02T06:14:20.826Z,66.98
2022-12-02T06:15:43.710Z,67.05
2022-12-02T06:17:15.184Z,66.75
2022-12-02T06:18:37.919Z,66.65
2022-12-02T06:19:58.991Z,66.29
2022-12-02T06:21:24.439Z,66.84
2022-12-02T06:22:46.679Z,66.95
2022-12-02T06:24:12.007Z,66.83
2022-12-02T06:25:34.486Z,66.70
2022-12-02T06:26:58.390Z,66.76
2022-12-02T06:28:27.031Z,66.61
2022-12-02T06:29:52.420Z,66.42
2022-12-02T06:31:17.847Z,66.59
2022-12-02T06:32:43.465Z,66.71
2022-12-02T06:34:21.991Z,66.81
2022-12-02T06:35:43.185Z,66.62
2022-12-02T06:37:14.964Z,66.60
2022-12-02T06:38:43.996Z,66.62
2022-12-02T06:40:28.874Z,66.36
2022-12-02T06:41:51.517Z,66.34
2022-12-02T06:43:19.383Z,66.24
2022-12-02T06:45:01.954Z,66.26
2022-12-02T06:46:24.034Z,66.31
2022-12-02T06:48:08.769Z,66.43
2022-12-02T06:49:38.064Z,66.30
2022-12-02T06:51:09.031Z,66.40
2022-12-02T06:52:29.951Z,66.23
2022-12-02T06:53:52.212Z,66.48
2022-12-02T06:55:29.151Z,66.37
2022-12-02T06:56:52.703Z,66.41
2022-12-02T06:58:27.077Z,66.52
2022-12-02T06:59:53.242Z,66.35
2022-12-02T07:01:41.316Z,66.36
2022-12-02T07:03:02.502Z,66.30
2022-12-02T07:04:32.472Z,66.23
2022-12-02T07:05:54.308Z,66.44
2022-12-02T07:07:20.660Z,66.24
2022-12-02T07:08:42.258Z,66.36
2022-12-02T07:10:08.323Z,66.21
2022-12-02T07:11:54.478Z,66.18
2022-12-02T07:13:21.206Z,66.42
2022-12-02T07:14:48.036Z,66.15
2022-12-02T07:16:33.641Z,66.25
2022-12-02T07:18:02.348Z,66.38
2022-12-02T07:19:27.302Z,66.50
2022-12-02T07:20:50.879Z,66.06
2022-12-02T07:22:17.063Z,66.14
2022-12-02T07:23:41.176Z,66.19
2022-12-02T07:25:31.062Z,66.20
2022-12-02T07:26:53.332Z,66.09
2022-12-02T07:28:27.677Z,65.84
2022-12-02T07:29:52.850Z,65.98
2022-12-02T07:31:19.614Z,66.03
2022-12-02T07:32:43.374Z,65.97
2022-12-02T07:34:05.113Z,65.86
2022-12-02T07:35:27.929Z,65.97
2022-12-02T07:36:49.671Z,65.93
2022-12-02T07:38:11.835Z,65.65
2022-12-02T07:39:36.578Z,65.64
2022-12-02T07:40:58.629Z,65.70
2022-12-02T07:42:20.971Z,65.92
2022-12-02T07:43:43.219Z,65.82
2022-12-02T07:45:05.879Z,65.97
2022-12-02T07:46:28.245Z,65.97
2022-12-02T07:47:51.504Z,65.78
2022-12-02T07:49:13.492Z,65.88
2022-12-02T07:50:38.019Z,66.08
2022-12-02T07:52:00.371Z,65.92
2022-12-02T07:53:22.445Z,65.84
2022-12-02T07:54:44.117Z,65.99
2022-12-02T07:56:06.434Z,66.10
2022-12-02T07:57:29.358Z,66.20
2022-12-02T07:59:11.783Z,66.18
2022-12-02T08:00:35.856Z,66.18
2022-12-02T08:01:58.475Z,66.33
2022-12-02T08:03:22.224Z,66.37
2022-12-02T08:04:44.402Z,66.16
2022-12-02T08:06:07.012Z,66.51
2022-12-02T08:07:29.362Z,66.36
2022-12-02T08:08:51.370Z,66.37
2022-12-02T08:10:13.758Z,66.39
2022-12-02T08:11:36.067Z,66.22
2022-12-02T08:12:57.808Z,66.67
2022-12-02T08:14:19.708Z,66.69
2022-12-02T08:15:42.009Z,66.58
2022-12-02T08:17:04.473Z,66.43
2022-12-02T08:18:27.881Z,66.64
2022-12-02T08:19:50.176Z,66.72
2022-12-02T08:21:12.228Z,66.73
2022-12-02T08:22:34.365Z,66.66
2022-12-02T08:23:56.040Z,66.42
2022-12-02T08:25:18.011Z,66.54
2022-12-02T08:26:39.974Z,66.25
2022-12-02T08:28:01.805Z,66.32
2022-12-02T08:29:26.161Z,66.22
2022-12-02T08:30:48.419Z,66.29
2022-12-02T08:32:09.496Z,66.30
2022-12-02T08:33:32.739Z,66.37
2022-12-02T08:34:54.793Z,66.50
2022-12-02T08:36:16.959Z,66.63
2022-12-02T08:37:39.179Z,66.78
2022-12-02T08:39:02.934Z,66.74
2022-12-02T08:40:25.447Z,66.64
2022-12-02T08:41:47.536Z,66.65
2022-12-02T08:43:09.728Z,66.86
2022-12-02T08:44:32.004Z,66.71
2022-12-02T08:45:57.910Z,66.48
2022-12-02T08:47:31.066Z,66.50
2022-12-02T08:48:55.429Z,66.63
2022-12-02T08:50:17.753Z,66.63
2022-12-02T08:51:39.741Z,66.59
2022-12-02T08:53:02.199Z,66.14
2022-12-02T08:54:24.098Z,66.36
2022-12-02T08:55:45.728Z,66.26
2022-12-02T08:57:13.337Z,66.00
2022-12-02T08:58:35.497Z,66.06
2022-12-02T08:59:56.700Z,66.01
2022-12-02T09:01:21.541Z,66.15
2022-12-02T09:02:44.125Z,66.12
2022-12-02T09:04:08.107Z,65.93
2022-12-02T09:05:30.215Z,65.85
2022-12-02T09:06:52.428Z,65.67
2022-12-02T09:08:14.824Z,65.66
2022-12-02T09:09:37.055Z,65.71
2022-12-02T09:10:59.140Z,65.90
2022-12-02T09:12:21.308Z,65.86
2022-12-02T09:13:43.557Z,66.04
2022-12-02T09:15:07.855Z,65.71
2022-12-02T09:16:29.906Z,65.71
2022-12-02T09:17:52.459Z,65.70
2022-12-02T09:19:15.695Z,65.65
2022-12-02T09:20:37.838Z,65.51
2022-12-02T09:21:59.841Z,65.71
2022-12-02T09:23:21.965Z,65.69
2022-12-02T09:24:44.322Z,65.64
2022-12-02T09:26:06.627Z,65.77
2022-12-02T09:27:29.385Z,65.78
2022-12-02T09:28:51.419Z,65.53
2022-12-02T09:30:17.234Z,65.26
2022-12-02T09:31:39.507Z,65.23
2022-12-02T09:33:01.068Z,65.24
2022-12-02T09:34:24.473Z,65.31
2022-12-02T09:35:46.665Z,65.24
2022-12-02T09:37:09.447Z,64.88
2022-12-02T09:38:32.374Z,64.77
2022-12-02T09:39:54.444Z,64.32
2022-12-02T09:41:16.737Z,65.02
2022-12-02T09:42:39.121Z,64.56
2022-12-02T09:44:01.904Z,64.37
2022-12-02T09:45:24.347Z,64.84
2022-12-02T09:46:46.761Z,64.65
2022-12-02T09:48:12.490Z,64.74
2022-12-02T09:49:36.946Z,64.63
2022-12-02T09:51:01.141Z,64.30
2022-12-02T09:52:26.631Z,64.41
2022-12-02T09:53:49.274Z,64.40
2022-12-02T09:55:14.923Z,64.50
2022-12-02T09:56:37.463Z,64.26
2022-12-02T09:58:06.849Z,64.29
2022-12-02T09:59:31.523Z,64.00
2022-12-02T10:00:54.462Z,64.21
2022-12-02T10:02:24.529Z,64.37
2022-12-02T10:03:51.175Z,64.67
2022-12-02T10:05:17.482Z,64.70
2022-12-02T10:06:39.355Z,64.47
2022-12-02T10:08:04.406Z,64.75
2022-12-02T10:09:31.128Z,64.22
2022-12-02T10:10:56.866Z,64.49
2022-12-02T10:12:19.056Z,64.40
2022-12-02T10:13:41.659Z,64.37
2022-12-02T10:15:03.491Z,64.27
2022-12-02T10:16:27.746Z,64.13
2022-12-02T10:17:50.177Z,64.12
2022-12-02T10:19:17.402Z,64.11
2022-12-02T10:20:41.204Z,64.17
2022-12-02T10:22:03.240Z,64.21
2022-12-02T10:23:27.406Z,64.52
2022-12-02T10:24:50.822Z,64.30
2022-12-02T10:26:15.044Z,64.33
2022-12-02T10:27:37.972Z,64.49
2022-12-02T10:29:02.638Z,64.62
2022-12-02T10:30:27.225Z,64.58
2022-12-02T10:31:55.791Z,64.35
2022-12-02T10:33:18.061Z,64.37
2022-12-02T10:34:40.186Z,64.00
2022-12-02T10:36:03.369Z,64.02
2022-12-02T10:37:26.663Z,64.30
2022-12-02T10:38:48.685Z,63.72
2022-12-02T10:40:16.673Z,64.33
2022-12-02T10:41:38.795Z,64.19
2022-12-02T10:43:11.373Z,64.33
2022-12-02T10:44:35.647Z,64.80
2022-12-02T10:45:58.561Z,64.50
2022-12-02T10:47:26.114Z,64.82
2022-12-02T10:48:49.855Z,64.74
2022-12-02T10:50:21.924Z,64.48
2022-12-02T10:51:45.408Z,64.61
2022-12-02T10:53:14.235Z,64.74
2022-12-02T10:54:43.075Z,64.66
2022-12-02T10:56:09.522Z,64.74
2022-12-02T10:57:34.923Z,64.52
2022-12-02T10:58:57.438Z,64.95
2022-12-02T11:00:21.997Z,65.04
2022-12-02T11:01:45.843Z,65.07
2022-12-02T11:03:08.528Z,64.92
2022-12-02T11:04:31.057Z,65.01
2022-12-02T11:05:53.354Z,65.07
2022-12-02T11:07:25.150Z,64.90
2022-12-02T11:08:48.560Z,64.95
2022-12-02T11:10:24.463Z,65.48
2022-12-02T11:11:47.349Z,65.27
2022-12-02T11:13:49.810Z,65.46
2022-12-02T11:15:50.568Z,65.43
2022-12-02T11:17:14.780Z,65.32
2022-12-02T11:18:57.083Z,65.43
2022-12-02T11:20:36.132Z,65.12
2022-12-02T11:22:00.719Z,65.25
2022-12-02T11:23:35.073Z,65.32
2022-12-02T11:25:00.250Z,65.25
2022-12-02T11:26:43.070Z,65.39
2022-12-02T11:28:32.470Z,65.41
2022-12-02T11:30:37.653Z,65.25
2022-12-02T11:32:05.744Z,65.44
2022-12-02T11:34:06.079Z,65.37
2022-12-02T11:36:13.558Z,65.25
2022-12-02T11:37:40.701Z,64.96
2022-12-02T11:39:07.132Z,65.16
2022-12-02T11:41:00.673Z,65.22
2022-12-02T11:42:25.784Z,64.96
2022-12-02T11:44:09.167Z,64.86
2022-12-02T11:45:58.343Z,64.79
2022-12-02T11:47:27.353Z,64.83
2022-12-02T11:48:52.391Z,64.62
2022-12-02T11:50:25.096Z,64.82
2022-12-02T11:51:46.247Z,64.51
2022-12-02T11:53:17.647Z,64.53
2022-12-02T11:54:41.700Z,64.64
2022-12-02T11:56:12.717Z,64.66
2022-12-02T11:57:45.439Z,64.58
2022-12-02T11:59:21.046Z,64.08
2022-12-02T12:00:47.213Z,64.24
2022-12-02T12:02:09.715Z,64.34
2022-12-02T12:03:32.611Z,64.02
2022-12-02T12:05:06.476Z,64.22
2022-12-02T12:06:34.700Z,64.62
2022-12-02T12:08:02.605Z,64.52
2022-12-02T12:09:28.085Z,64.70
2022-12-02T12:11:17.138Z,64.54
2022-12-02T12:12:39.485Z,64.48
2022-12-02T12:14:05.006Z,64.23
2022-12-02T12:15:55.849Z,64.46
2022-12-02T12:17:36.039Z,64.52
2022-12-02T12:19:02.862Z,64.51
2022-12-02T12:20:47.131Z,64.69
2022-12-02T12:22:27.557Z,64.60
2022-12-02T12:23:49.426Z,64.46
2022-12-02T12:25:43.270Z,64.48
2022-12-02T12:27:14.200Z,64.38
2022-12-02T12:28:37.802Z,64.28
2022-12-02T12:30:02.826Z,64.87
2022-12-02T12:31:24.662Z,64.72
2022-12-02T12:32:46.424Z,64.80
2022-12-02T12:34:09.161Z,64.73
2022-12-02T12:35:31.179Z,65.09
2022-12-02T12:36:53.587Z,65.02
2022-12-02T12:38:16.483Z,65.18
2022-12-02T12:39:41.557Z,65.21
2022-12-02T12:41:06.695Z,65.22
2022-12-02T12:42:30.452Z,65.15
2022-12-02T12:43:52.409Z,65.16
2022-12-02T12:45:17.550Z,65.33
2022-12-02T12:46:42.490Z,65.75
2022-12-02T12:48:05.157Z,65.46
2022-12-02T12:49:27.398Z,65.33
2022-12-02T12:50:49.418Z,65.11
2022-12-02T12:52:14.521Z,64.89
2022-12-02T12:53:37.019Z,64.75
2022-12-02T12:54:59.009Z,64.85
2022-12-02T12:56:22.536Z,64.98
2022-12-02T12:57:44.863Z,65.02
2022-12-02T12:59:07.159Z,65.21
2022-12-02T13:00:28.836Z,65.29
2022-12-02T13:01:51.084Z,65.29
2022-12-02T13:03:13.441Z,65.32
2022-12-02T13:04:35.541Z,65.23
2022-12-02T13:06:00.716Z,65.39
2022-12-02T13:07:23.296Z,65.27
2022-12-02T13:08:45.118Z,65.04
2022-12-02T13:10:10.637Z,65.39
2022-12-02T13:11:34.000Z,65.18
2022-12-02T13:12:55.990Z,65.23
2022-12-02T13:14:18.331Z,64.89
2022-12-02T13:15:41.286Z,65.05
2022-12-02T13:17:03.246Z,65.14
2022-12-02T13:18:25.152Z,64.84
2022-12-02T13:19:50.066Z,64.44
2022-12-02T13:21:12.341Z,64.45
2022-12-02T13:22:34.879Z,64.32
2022-12-02T13:23:58.327Z,64.66
2022-12-02T13:25:21.445Z,64.79
2022-12-02T13:26:44.878Z,64.73
2022-12-02T13:28:07.196Z,64.90
2022-12-02T13:29:30.015Z,64.93
2022-12-02T13:30:58.405Z,65.00
2022-12-02T13:32:20.411Z,64.71
2022-12-02T13:33:42.499Z,64.73
2022-12-02T13:35:04.473Z,64.83
2022-12-02T13:36:26.570Z,64.41
2022-12-02T13:37:48.878Z,64.59
2022-12-02T13:39:11.781Z,64.26
2022-12-02T13:40:33.543Z,64.43
2022-12-02T13:41:56.921Z,64.37
2022-12-02T13:43:19.136Z,64.59
2022-12-02T13:44:41.276Z,64.33
2022-12-02T13:46:03.466Z,64.86
2022-12-02T13:47:26.857Z,64.77
2022-12-02T13:48:49.064Z,64.69
2022-12-02T13:50:11.652Z,64.85
2022-12-02T13:51:35.372Z,65.04
2022-12-02T13:53:03.337Z,65.16
2022-12-02T13:54:26.554Z,65.13
2022-12-02T13:55:49.061Z,65.16
2022-12-02T13:57:14.401Z,65.43
2022-12-02T13:58:36.624Z,65.30
2022-12-02T13:59:58.818Z,65.32
2022-12-02T14:01:21.350Z,65.34
2022-12-02T14:02:50.835Z,65.57
2022-12-02T14:04:12.963Z,65.26
2022-12-02T14:05:37.203Z,65.48
2022-12-02T14:07:00.381Z,65.61
2022-12-02T14:08:22.326Z,65.62
2022-12-02T14:09:44.380Z,65.80
2022-12-02T14:11:07.113Z,65.79
2022-12-02T14:12:30.483Z,65.68
2022-12-02T14:13:52.500Z,66.09
2022-12-02T14:15:14.873Z,65.79
2022-12-02T14:16:37.367Z,65.87
2022-12-02T14:17:59.814Z,66.02
2022-12-02T14:19:22.124Z,65.85
2022-12-02T14:20:44.972Z,66.10
2022-12-02T14:22:10.276Z,65.81
2022-12-02T14:23:32.486Z,65.63
2022-12-02T14:24:55.468Z,65.43
2022-12-02T14:26:17.824Z,65.57
2022-12-02T14:27:41.615Z,65.74
2022-12-02T14:29:03.886Z,65.54
2022-12-02T14:30:26.028Z,65.68
2022-12-02T14:31:48.259Z,65.54
2022-12-02T14:33:11.417Z,65.50
2022-12-02T14:34:33.553Z,65.77
2022-12-02T14:35:55.538Z,65.90
2022-12-02T14:37:17.869Z,65.80
2022-12-02T14:38:40.195Z,65.85
2022-12-02T14:40:05.118Z,65.76
2022-12-02T14:41:30.218Z,65.43
2022-12-02T14:42:56.887Z,65.85
2022-12-02T14:44:18.899Z,65.84
2022-12-02T14:45:40.956Z,65.94
2022-12-02T14:47:05.884Z,65.97
2022-12-02T14:48:28.455Z,66.01
2022-12-02T14:49:52.342Z,66.28
2022-12-02T14:51:14.471Z,66.13
2022-12-02T14:52:36.818Z,66.20
2022-12-02T14:53:58.987Z,66.30
2022-12-02T14:55:21.645Z,66.61
2022-12-02T14:56:44.244Z,66.49
2022-12-02T14:58:07.608Z,66.75
2022-12-02T14:59:32.797Z,66.70
2022-12-02T15:00:54.895Z,66.58
2022-12-02T15:02:17.272Z,66.52
2022-12-02T15:03:39.337Z,66.54
2022-12-02T15:05:01.680Z,66.58
2022-12-02T15:06:24.091Z,66.48
2022-12-02T15:07:46.583Z,66.30
2022-12-02T15:09:09.260Z,66.28
2022-12-02T15:10:31.975Z,66.26
2022-12-02T15:12:00.781Z,66.15
2022-12-02T15:13:25.268Z,66.36
2022-12-02T15:14:47.509Z,66.48
2022-12-02T15:16:10.793Z,66.35
2022-12-02T15:17:33.323Z,66.27
2022-12-02T15:18:56.026Z,66.06
2022-12-02T15:20:18.508Z,65.91
2022-12-02T15:21:40.241Z,65.92
2022-12-02T15:23:02.509Z,65.74
2022-12-02T15:24:24.974Z,65.43
2022-12-02T15:25:47.059Z,65.65
2022-12-02T15:27:08.931Z,65.61
2022-12-02T15:28:32.357Z,65.50
2022-12-02T15:29:54.697Z,65.67
2022-12-02T15:31:18.949Z,65.43
2022-12-02T15:32:41.278Z,65.76
2022-12-02T15:34:03.603Z,65.36
2022-12-02T15:35:25.683Z,65.46
2022-12-02T15:36:47.349Z,65.42
2022-12-02T15:38:09.259Z,65.42
2022-12-02T15:39:31.759Z,65.24
2022-12-02T15:40:54.177Z,65.22
2022-12-02T15:42:16.323Z,65.40
2022-12-02T15:43:39.405Z,65.27
2022-12-02T15:45:13.722Z,65.13
2022-12-02T15:46:36.071Z,65.17
2022-12-02T15:47:58.484Z,65.60
2022-12-02T15:49:20.885Z,65.61
2022-12-02T15:50:43.355Z,65.51
2022-12-02T15:52:05.616Z,65.47
2022-12-02T15:53:29.744Z,65.45
2022-12-02T15:54:52.292Z,65.47
2022-12-02T15:56:17.609Z,65.44
2022-12-02T15:57:39.950Z,65.45
2022-12-02T15:59:22.333Z,65.60
2022-12-02T16:00:58.840Z,65.47
2022-12-02T16:02:30.245Z,65.59
2022-12-02T16:03:56.340Z,65.66
2022-12-02T16:05:27.378Z,65.45
2022-12-02T16:06:56.708Z,65.29
2022-12-02T16:08:25.632Z,65.44
2022-12-02T16:09:49.869Z,65.28
2022-12-02T16:11:13.957Z,65.42
2022-12-02T16:12:36.475Z,65.25
2022-12-02T16:13:59.120Z,65.32
2022-12-02T16:15:22.650Z,64.99
2022-12-02T16:16:44.988Z,65.25
2022-12-02T16:18:07.294Z,64.98
2022-12-02T16:19:29.864Z,65.20
2022-12-02T16:20:55.520Z,65.20
2022-12-02T16:22:18.513Z,65.31
2022-12-02T16:23:45.131Z,65.01
2022-12-02T16:25:14.261Z,65.36
2022-12-02T16:26:39.967Z,65.15
2022-12-02T16:28:02.468Z,65.05
2022-12-02T16:29:27.670Z,64.99
2022-12-02T16:30:52.767Z,64.75
2022-12-02T16:32:20.503Z,64.81
2022-12-02T16:33:43.141Z,64.98
2022-12-02T16:35:15.651Z,64.86
2022-12-02T16:36:38.074Z,65.13
2022-12-02T16:38:11.450Z,64.85
2022-12-02T16:39:35.835Z,64.86
2022-12-02T16:41:00.050Z,64.69
2022-12-02T16:42:33.230Z,64.60
2022-12-02T16:44:02.174Z,64.80
2022-12-02T16:45:29.257Z,64.72
2022-12-02T16:46:53.254Z,64.69
2022-12-02T16:48:15.738Z,64.79
2022-12-02T16:49:40.183Z,65.08
2022-12-02T16:51:03.586Z,65.02
2022-12-02T16:52:28.094Z,65.30
2022-12-02T16:53:59.168Z,65.35
2022-12-02T16:55:29.372Z,65.29
2022-12-02T16:56:56.408Z,65.42
2022-12-02T16:58:18.867Z,65.65
2022-12-02T16:59:41.438Z,65.49
2022-12-02T17:01:03.827Z,65.60
2022-12-02T17:02:32.103Z,65.64
2022-12-02T17:03:54.830Z,65.30
2022-12-02T17:05:17.329Z,65.39
2022-12-02T17:06:39.340Z,65.41
2022-12-02T17:08:01.610Z,65.43
2022-12-02T17:09:24.294Z,65.53
2022-12-02T17:10:46.586Z,65.54
2022-12-02T17:12:08.726Z,65.28
2022-12-02T17:13:32.223Z,65.29
2022-12-02T17:14:55.375Z,65.00
2022-12-02T17:16:17.643Z,65.30
2022-12-02T17:17:46.231Z,65.17
2022-12-02T17:19:09.625Z,65.29
2022-12-02T17:20:31.698Z,65.23
2022-12-02T17:21:53.483Z,65.57
2022-12-02T17:23:16.616Z,65.53
2022-12-02T17:24:39.014Z,65.30
2022-12-02T17:26:01.349Z,65.58
2022-12-02T17:27:23.516Z,65.73
2022-12-02T17:28:45.720Z,65.53
2022-12-02T17:30:11.715Z,65.90
2022-12-02T17:31:33.767Z,65.76
2022-12-02T17:32:57.421Z,65.90
2022-12-02T17:34:19.510Z,65.83
2022-12-02T17:35:41.083Z,66.01
2022-12-02T17:37:02.941Z,65.83
2022-12-02T17:38:25.409Z,65.61
2022-12-02T17:39:47.148Z,65.91
2022-12-02T17:41:11.982Z,65.91
2022-12-02T17:42:34.369Z,65.89
2022-12-02T17:43:56.047Z,65.60
2022-12-02T17:45:18.363Z,65.61
2022-12-02T17:46:43.560Z,65.64
2022-12-02T17:48:07.493Z,65.73
2022-12-02T17:49:33.961Z,65.72
2022-12-02T17:50:56.507Z,65.60
2022-12-02T17:52:20.452Z,65.73
2022-12-02T17:53:43.519Z,65.72
2022-12-02T17:55:10.419Z,65.89
2022-12-02T17:56:32.699Z,65.84
2022-12-02T17:57:55.023Z,65.81
2022-12-02T17:59:17.329Z,65.69
2022-12-02T18:00:39.814Z,65.79
2022-12-02T18:02:02.043Z,66.34
2022-12-02T18:03:26.084Z,65.89
2022-12-02T18:04:50.631Z,65.94
2022-12-02T18:06:13.225Z,65.54
2022-12-02T18:07:35.551Z,65.42
2022-12-02T18:08:57.810Z,65.69
2022-12-02T18:10:20.086Z,65.60
2022-12-02T18:11:42.194Z,65.42